Time;durP1;ratioP1;P1;durP2;ratioP2;P2;SDS_P1;SDS_P2;PMS_P1;PMS_P2;Temp;Humidity;BMP_temperature;BMP_pressure;BME280_temperature;BME280_humidity;BME280_pressure;Samples;Min_cycle;Max_cycle;Signal;HPM_P1;HPM_P2
2022/04/03 00:01:34;;;;;;;9.35;3.10;;;0.70;99.90;;;;;;5043208;28;20038;-57
2022/04/03 00:04:00;;;;;;;7.47;3.47;;;0.70;99.90;;;;;;5041534;28;20027;-55
2022/04/03 00:06:25;;;;;;;10.13;4.55;;;0.80;99.90;;;;;;5044272;28;20029;-53
2022/04/03 00:08:51;;;;;;;11.07;3.28;;;0.80;99.90;;;;;;5039077;28;20480;-56
2022/04/03 00:11:16;;;;;;;5.10;2.70;;;0.80;99.90;;;;;;5038558;28;20033;-54
2022/04/03 00:13:42;;;;;;;7.63;3.72;;;0.80;99.90;;;;;;5044976;28;20518;-52
2022/04/03 00:16:08;;;;;;;5.38;2.85;;;0.80;99.90;;;;;;5044296;28;20723;-55
2022/04/03 00:18:34;;;;;;;5.75;3.35;;;0.80;99.90;;;;;;5046380;28;20067;-56
2022/04/03 00:21:00;;;;;;;6.10;2.88;;;0.80;99.90;;;;;;5047639;28;20049;-54
2022/04/03 00:23:26;;;;;;;8.90;2.65;;;0.80;99.90;;;;;;5049438;28;20393;-55
2022/04/03 00:25:52;;;;;;;5.82;3.28;;;0.80;99.90;;;;;;5046406;28;20487;-53
2022/04/03 00:28:19;;;;;;;5.45;3.35;;;0.70;99.90;;;;;;5051652;28;20048;-56
2022/04/03 00:30:45;;;;;;;11.05;3.45;;;0.70;99.90;;;;;;5043223;28;20079;-55
2022/04/03 00:33:11;;;;;;;4.20;2.53;;;0.60;99.90;;;;;;5033252;28;20037;-57
2022/04/03 00:35:36;;;;;;;6.97;3.55;;;0.60;99.90;;;;;;5028835;28;20408;-56
2022/04/03 00:38:03;;;;;;;8.85;3.10;;;0.60;99.90;;;;;;5045121;28;20032;-58
2022/04/03 00:40:29;;;;;;;6.65;3.10;;;0.50;99.90;;;;;;5045023;28;20029;-54
2022/04/03 00:42:55;;;;;;;5.95;3.28;;;0.60;99.90;;;;;;5039111;28;20041;-57
2022/04/03 00:45:20;;;;;;;4.97;3.15;;;0.50;99.90;;;;;;5040496;28;20391;-56
2022/04/03 00:47:54;;;;;;;8.23;2.63;;;0.50;99.90;;;;;;5040656;28;20064;-58
2022/04/03 00:50:21;;;;;;;4.97;3.03;;;0.50;99.90;;;;;;5040620;28;20028;-57
2022/04/03 00:52:47;;;;;;;6.82;2.83;;;0.50;99.90;;;;;;5041410;28;20029;-57
2022/04/03 00:55:13;;;;;;;5.68;3.22;;;0.50;99.90;;;;;;5048803;28;20025;-59
2022/04/03 00:57:40;;;;;;;6.90;3.40;;;0.50;99.90;;;;;;5037082;28;20570;-57
2022/04/03 01:00:06;;;;;;;9.93;2.88;;;0.50;99.90;;;;;;5050746;28;20036;-57
2022/04/03 01:02:32;;;;;;;4.03;2.85;;;0.50;99.90;;;;;;5045074;28;20033;-53
2022/04/03 01:04:58;;;;;;;7.72;3.33;;;0.50;99.90;;;;;;5036554;28;20505;-58
2022/04/03 01:07:23;;;;;;;5.30;3.10;;;0.50;99.90;;;;;;5049940;28;20543;-54
2022/04/03 01:09:49;;;;;;;6.75;3.20;;;0.50;99.90;;;;;;5051406;28;20137;-55
2022/04/03 01:12:15;;;;;;;6.35;3.15;;;0.50;99.90;;;;;;5040325;28;20442;-55
2022/04/03 01:14:42;;;;;;;6.65;3.22;;;0.50;99.90;;;;;;5042736;28;20028;-56
2022/04/03 01:17:11;;;;;;;9.60;3.40;;;0.50;99.90;;;;;;5036838;28;20399;-57
2022/04/03 01:19:37;;;;;;;3.95;2.70;;;0.50;99.90;;;;;;5043516;28;20081;-54
2022/04/03 01:22:03;;;;;;;4.90;2.88;;;0.50;99.90;;;;;;5042936;28;20432;-56
2022/04/03 01:24:30;;;;;;;4.47;2.83;;;0.50;99.90;;;;;;5050338;28;20022;-55
2022/04/03 01:26:56;;;;;;;5.32;3.05;;;0.50;99.90;;;;;;5049831;28;20029;-56
2022/04/03 01:29:23;;;;;;;4.95;2.83;;;0.50;99.90;;;;;;5043652;28;20034;-54
2022/04/03 01:31:49;;;;;;;7.47;3.05;;;0.50;99.90;;;;;;5044068;28;20025;-58
2022/04/03 01:34:16;;;;;;;8.48;3.55;;;0.50;99.90;;;;;;5044135;28;20107;-56
2022/04/03 01:36:43;;;;;;;10.50;3.40;;;0.60;99.90;;;;;;5045515;28;20078;-56
2022/04/03 01:39:12;;;;;;;7.50;3.15;;;0.60;99.90;;;;;;5041746;28;20057;-54
2022/04/03 01:41:42;;;;;;;6.03;3.33;;;0.60;99.90;;;;;;5043884;28;20057;-56
2022/04/03 01:44:09;;;;;;;6.85;3.15;;;0.60;99.90;;;;;;5040716;28;20029;-53
2022/04/03 01:46:37;;;;;;;6.35;3.53;;;0.60;99.90;;;;;;5043245;28;20013;-58
2022/04/03 01:49:04;;;;;;;9.25;3.20;;;0.60;99.90;;;;;;5042971;28;20025;-57
2022/04/03 01:51:30;;;;;;;9.90;3.03;;;0.60;99.90;;;;;;5042768;28;20017;-51
2022/04/03 01:53:55;;;;;;;7.03;3.60;;;0.60;99.90;;;;;;5037510;28;20040;-57
2022/04/03 01:56:21;;;;;;;9.02;3.35;;;0.60;99.90;;;;;;5022482;28;20496;-58
2022/04/03 01:58:47;;;;;;;5.40;2.67;;;0.60;99.90;;;;;;5049892;28;20094;-55
2022/04/03 02:01:12;;;;;;;5.38;3.10;;;0.60;99.90;;;;;;5048544;28;20028;-55
2022/04/03 02:03:38;;;;;;;4.55;2.78;;;0.60;99.90;;;;;;5040762;28;20022;-58
2022/04/03 02:06:03;;;;;;;7.18;3.25;;;0.60;99.90;;;;;;5044697;28;20029;-55
2022/04/03 02:08:29;;;;;;;4.70;2.80;;;0.60;99.90;;;;;;5045933;28;20049;-56
2022/04/03 02:10:55;;;;;;;6.70;3.05;;;0.60;99.90;;;;;;5038134;28;20079;-57
2022/04/03 02:13:20;;;;;;;5.53;3.13;;;0.60;99.90;;;;;;5041624;28;20377;-58
2022/04/03 02:15:46;;;;;;;6.13;2.88;;;0.60;99.90;;;;;;5044586;28;20400;-57
2022/04/03 02:18:12;;;;;;;5.88;3.03;;;0.60;99.90;;;;;;5044559;28;20139;-57
2022/04/03 02:20:38;;;;;;;10.70;3.53;;;0.60;99.90;;;;;;5047152;28;20027;-56
2022/04/03 02:23:05;;;;;;;7.47;3.20;;;0.50;99.90;;;;;;5048362;28;20111;-57
2022/04/03 02:25:32;;;;;;;9.68;3.40;;;0.60;99.90;;;;;;5048942;28;20032;-54
2022/04/03 02:27:59;;;;;;;4.78;2.97;;;0.60;99.90;;;;;;5039115;28;20033;-55
2022/04/03 02:30:25;;;;;;;7.60;3.22;;;0.60;99.90;;;;;;5046694;28;20048;-54
2022/04/03 02:32:51;;;;;;;7.57;3.22;;;0.60;99.90;;;;;;5043506;28;20087;-52
2022/04/03 02:35:17;;;;;;;7.43;3.75;;;0.70;99.90;;;;;;5048515;28;20029;-50
2022/04/03 02:37:43;;;;;;;8.00;3.72;;;0.60;99.90;;;;;;5043298;28;20053;-55
2022/04/03 02:40:11;;;;;;;6.20;3.00;;;0.60;99.90;;;;;;5046799;28;20487;-57
2022/04/03 02:42:37;;;;;;;11.95;3.85;;;0.60;99.90;;;;;;5039680;28;20124;-55
2022/04/03 02:45:05;;;;;;;6.53;3.67;;;0.60;99.90;;;;;;5038315;28;20120;-57
2022/04/03 02:47:31;;;;;;;5.15;2.97;;;0.60;99.90;;;;;;5048824;28;20021;-49
2022/04/03 02:49:56;;;;;;;8.38;3.45;;;0.60;99.90;;;;;;5042397;28;20099;-54
2022/04/03 02:52:22;;;;;;;6.88;3.53;;;0.60;99.90;;;;;;5050195;28;20516;-56
2022/04/03 02:54:47;;;;;;;7.40;3.35;;;0.60;99.90;;;;;;5041930;28;20029;-57
2022/04/03 02:57:15;;;;;;;11.00;4.30;;;0.60;99.90;;;;;;5019015;28;20115;-53
2022/04/03 02:59:42;;;;;;;7.82;3.50;;;0.60;99.90;;;;;;5045769;28;20069;-53
2022/04/03 03:02:07;;;;;;;7.75;3.42;;;0.60;99.90;;;;;;5043564;28;20017;-56
2022/04/03 03:04:36;;;;;;;6.78;3.70;;;0.60;99.90;;;;;;5036223;28;20079;-53
2022/04/03 03:07:03;;;;;;;9.38;3.75;;;0.60;99.90;;;;;;5036071;28;20392;-57
2022/04/03 03:09:28;;;;;;;9.23;3.53;;;0.60;99.90;;;;;;5044812;28;20043;-55
2022/04/03 03:11:54;;;;;;;8.23;3.60;;;0.50;99.90;;;;;;5045899;28;20025;-58
2022/04/03 03:14:20;;;;;;;9.43;4.05;;;0.50;99.90;;;;;;5033882;28;20025;-54
2022/04/03 03:16:45;;;;;;;5.88;3.17;;;0.60;99.90;;;;;;5030942;28;20029;-57
2022/04/03 03:19:11;;;;;;;9.27;4.82;;;0.50;99.90;;;;;;5032565;28;20041;-53
2022/04/03 03:21:37;;;;;;;6.85;3.72;;;0.60;99.90;;;;;;5037881;28;20021;-56
2022/04/03 03:24:03;;;;;;;4.72;3.30;;;0.50;99.90;;;;;;5043525;28;20051;-55
2022/04/03 03:26:28;;;;;;;6.05;3.13;;;0.50;99.90;;;;;;5046031;28;20045;-57
2022/04/03 03:28:54;;;;;;;9.88;3.78;;;0.50;99.90;;;;;;5037126;28;20404;-54
2022/04/03 03:31:19;;;;;;;6.95;3.33;;;0.50;99.90;;;;;;5045821;28;20056;-59
2022/04/03 03:33:46;;;;;;;8.40;4.13;;;0.50;99.90;;;;;;5031546;28;20037;-52
2022/04/03 03:36:12;;;;;;;6.10;3.67;;;0.50;99.90;;;;;;5035245;28;20029;-60
2022/04/03 03:38:37;;;;;;;7.68;3.60;;;0.50;99.90;;;;;;5045368;28;20086;-54
2022/04/03 03:41:03;;;;;;;7.18;4.75;;;0.50;99.90;;;;;;5040881;28;20025;-56
2022/04/03 03:43:29;;;;;;;8.82;4.20;;;0.50;99.90;;;;;;5036131;28;20036;-53
2022/04/03 03:45:56;;;;;;;11.88;4.20;;;0.50;99.90;;;;;;5042755;28;20407;-56
2022/04/03 03:48:22;;;;;;;6.20;4.00;;;0.50;99.90;;;;;;5037159;28;20087;-51
2022/04/03 03:50:48;;;;;;;8.05;3.78;;;0.50;99.90;;;;;;5045640;28;20476;-52
2022/04/03 03:53:13;;;;;;;6.53;4.35;;;0.40;99.90;;;;;;5033299;28;20041;-56
2022/04/03 03:55:39;;;;;;;9.95;3.55;;;0.50;99.90;;;;;;5034337;28;20078;-55
2022/04/03 03:58:05;;;;;;;10.02;4.25;;;0.40;99.90;;;;;;5029569;28;20127;-54
2022/04/03 04:00:30;;;;;;;5.88;3.13;;;0.40;99.90;;;;;;5034808;28;20094;-58
2022/04/03 04:02:56;;;;;;;8.75;3.88;;;0.40;99.90;;;;;;5031887;28;20504;-55
2022/04/03 04:05:22;;;;;;;5.53;4.05;;;0.50;99.90;;;;;;5031409;28;20116;-53
2022/04/03 04:07:48;;;;;;;9.13;4.32;;;0.40;99.90;;;;;;5041932;28;20082;-56
2022/04/03 04:10:15;;;;;;;8.98;4.45;;;0.40;99.90;;;;;;5050043;28;20075;-55
2022/04/03 04:12:41;;;;;;;10.93;4.15;;;0.40;99.90;;;;;;5038600;28;20033;-54
2022/04/03 04:15:08;;;;;;;7.57;4.00;;;0.40;99.90;;;;;;5049775;28;20025;-52
2022/04/03 04:17:39;;;;;;;6.65;4.18;;;0.40;99.90;;;;;;5046239;28;20091;-52
2022/04/03 04:20:06;;;;;;;6.97;3.60;;;0.40;99.90;;;;;;5036142;28;20358;-56
2022/04/03 04:22:32;;;;;;;6.78;4.30;;;0.40;99.90;;;;;;5045739;28;20036;-59
2022/04/03 04:24:57;;;;;;;8.07;3.65;;;0.40;99.90;;;;;;5033618;28;20034;-56
2022/04/03 04:27:23;;;;;;;6.28;3.90;;;0.40;99.90;;;;;;5030717;28;20100;-54
2022/04/03 04:29:48;;;;;;;7.68;3.95;;;0.40;99.90;;;;;;5033203;28;20527;-58
2022/04/03 04:32:14;;;;;;;7.40;4.28;;;0.30;99.90;;;;;;5033259;28;20024;-58
2022/04/03 04:34:39;;;;;;;7.53;4.50;;;0.30;99.90;;;;;;5040260;28;20029;-56
2022/04/03 04:37:05;;;;;;;7.90;4.32;;;0.40;99.90;;;;;;5038659;28;20565;-56
2022/04/03 04:39:31;;;;;;;10.68;4.32;;;0.30;99.90;;;;;;5036810;28;20033;-57
2022/04/03 04:41:57;;;;;;;6.85;4.38;;;0.30;99.90;;;;;;5042757;28;20492;-54
2022/04/03 04:44:23;;;;;;;7.68;4.43;;;0.30;99.90;;;;;;5039214;28;20021;-58
2022/04/03 04:46:49;;;;;;;11.50;5.18;;;0.30;99.90;;;;;;5033175;28;20022;-56
2022/04/03 04:49:16;;;;;;;13.90;4.55;;;0.30;99.90;;;;;;5038134;28;20021;-56
2022/04/03 04:51:42;;;;;;;8.45;4.35;;;0.20;99.90;;;;;;5044396;28;20484;-56
2022/04/03 04:54:08;;;;;;;10.70;4.63;;;0.20;99.90;;;;;;5045123;28;20036;-56
2022/04/03 04:56:35;;;;;;;8.82;4.72;;;0.20;99.90;;;;;;5030051;28;20026;-53
2022/04/03 04:59:01;;;;;;;8.20;4.93;;;0.20;99.90;;;;;;5018071;28;20052;-58
2022/04/03 05:01:26;;;;;;;9.35;4.85;;;0.10;99.90;;;;;;5042893;28;20096;-57
2022/04/03 05:03:52;;;;;;;8.70;4.55;;;0.10;99.90;;;;;;5037775;28;20503;-56
2022/04/03 05:06:17;;;;;;;7.15;4.28;;;0.20;99.90;;;;;;5037560;28;20029;-57
2022/04/03 05:08:44;;;;;;;10.85;4.70;;;0.10;99.90;;;;;;5039420;28;20025;-55
2022/04/03 05:11:13;;;;;;;9.52;4.80;;;0.10;99.90;;;;;;5039877;28;20025;-57
2022/04/03 05:13:38;;;;;;;9.05;4.93;;;0.20;99.90;;;;;;5035407;28;20021;-56
2022/04/03 05:16:05;;;;;;;8.93;4.97;;;0.20;99.90;;;;;;5051972;28;20025;-55
2022/04/03 05:18:30;;;;;;;8.27;4.68;;;0.20;99.90;;;;;;5041083;28;20025;-57
2022/04/03 05:20:56;;;;;;;11.38;4.88;;;0.20;99.90;;;;;;5032642;28;20032;-54
2022/04/03 05:23:22;;;;;;;8.43;4.78;;;0.20;99.90;;;;;;5048164;28;20024;-59
2022/04/03 05:25:47;;;;;;;9.05;4.82;;;0.20;99.90;;;;;;5038115;28;20480;-56
2022/04/03 05:28:13;;;;;;;7.63;4.97;;;0.20;99.90;;;;;;5041091;28;20017;-57
2022/04/03 05:30:38;;;;;;;11.40;5.03;;;0.30;99.90;;;;;;5040315;28;20028;-59
2022/04/03 05:33:04;;;;;;;9.48;5.43;;;0.30;99.90;;;;;;5046839;28;20114;-56
2022/04/03 05:35:30;;;;;;;8.32;4.80;;;0.30;99.90;;;;;;5049098;28;20056;-57
2022/04/03 05:37:55;;;;;;;11.07;4.80;;;0.30;99.90;;;;;;5049638;28;20458;-59
2022/04/03 05:40:21;;;;;;;12.55;5.55;;;0.40;99.90;;;;;;5041253;28;20037;-54
2022/04/03 05:42:47;;;;;;;7.38;4.78;;;0.40;99.90;;;;;;5051208;28;20041;-58
2022/04/03 05:45:13;;;;;;;9.02;5.28;;;0.40;99.90;;;;;;5050090;28;20104;-52
2022/04/03 05:47:38;;;;;;;16.65;9.10;;;0.50;99.90;;;;;;5045402;28;20096;-54
2022/04/03 05:50:05;;;;;;;15.65;8.20;;;0.60;99.90;;;;;;5033653;28;20026;-56
2022/04/03 05:52:41;;;;;;;12.45;6.28;;;0.50;99.90;;;;;;5038201;28;20028;-59
2022/04/03 05:55:08;;;;;;;9.25;5.28;;;0.50;99.90;;;;;;5048777;28;20029;-58
2022/04/03 05:57:34;;;;;;;9.13;5.38;;;0.50;99.90;;;;;;5029109;28;20124;-57
2022/04/03 06:00:00;;;;;;;8.65;4.82;;;0.50;99.90;;;;;;5042420;28;20111;-53
2022/04/03 06:02:26;;;;;;;15.23;6.60;;;0.60;99.90;;;;;;5044577;28;20080;-55
2022/04/03 06:04:52;;;;;;;14.77;7.55;;;0.70;99.90;;;;;;5043890;28;20021;-53
2022/04/03 06:07:17;;;;;;;8.95;5.80;;;0.70;99.90;;;;;;5049981;28;20546;-53
2022/04/03 06:09:43;;;;;;;7.72;5.18;;;0.80;99.90;;;;;;5049213;28;20503;-57
2022/04/03 06:12:10;;;;;;;7.82;5.20;;;0.90;99.90;;;;;;5048433;28;20032;-54
2022/04/03 06:14:36;;;;;;;8.10;4.53;;;1.10;99.90;;;;;;5046192;28;20028;-55
2022/04/03 06:17:01;;;;;;;8.18;4.70;;;1.30;99.90;;;;;;5040046;28;20419;-56
2022/04/03 06:19:27;;;;;;;9.45;5.32;;;1.40;99.90;;;;;;5037458;28;20548;-59
2022/04/03 06:21:53;;;;;;;8.75;4.75;;;1.60;99.90;;;;;;5037859;28;20033;-57
2022/04/03 06:24:18;;;;;;;8.63;5.50;;;1.70;99.90;;;;;;5035939;28;20392;-52
2022/04/03 06:26:44;;;;;;;7.13;4.53;;;1.80;99.90;;;;;;5032275;28;20634;-55
2022/04/03 06:29:09;;;;;;;38.65;12.27;;;1.90;99.90;;;;;;5035412;28;20052;-54
2022/04/03 06:31:35;;;;;;;14.98;10.02;;;1.90;99.90;;;;;;5050882;28;20024;-57
2022/04/03 06:34:02;;;;;;;22.02;11.43;;;1.90;99.90;;;;;;5043453;28;20025;-56
2022/04/03 06:36:27;;;;;;;9.18;4.57;;;2.00;99.90;;;;;;5035216;28;20020;-56
2022/04/03 06:38:53;;;;;;;7.13;3.92;;;2.10;99.90;;;;;;5040070;28;20017;-58
2022/04/03 06:41:18;;;;;;;10.90;3.83;;;2.20;99.90;;;;;;5044611;28;20025;-60
2022/04/03 06:43:44;;;;;;;8.13;5.55;;;2.20;99.90;;;;;;5032728;28;20025;-55
2022/04/03 06:46:10;;;;;;;9.68;5.15;;;2.30;99.90;;;;;;5043697;28;20477;-55
2022/04/03 06:48:35;;;;;;;9.88;4.60;;;2.50;99.90;;;;;;5046633;28;20453;-58
2022/04/03 06:51:01;;;;;;;8.65;3.95;;;2.70;99.90;;;;;;5042750;28;20479;-58
2022/04/03 06:53:27;;;;;;;5.82;4.15;;;2.90;99.90;;;;;;5049988;28;20021;-55
2022/04/03 06:55:53;;;;;;;7.68;5.03;;;3.20;99.90;;;;;;5041549;28;20035;-54
2022/04/03 06:58:18;;;;;;;7.60;5.18;;;3.60;99.90;;;;;;5049417;28;20072;-57
2022/04/03 07:00:44;;;;;;;10.25;3.92;;;3.60;99.90;;;;;;5022918;28;20045;-53
2022/04/03 07:03:09;;;;;;;9.25;5.43;;;3.90;99.90;;;;;;5039068;28;20029;-58
2022/04/03 07:05:35;;;;;;;6.30;4.50;;;3.90;99.90;;;;;;5047486;28;20362;-59
2022/04/03 07:08:01;;;;;;;7.82;4.40;;;4.30;99.80;;;;;;5034667;28;20025;-59
2022/04/03 07:10:27;;;;;;;7.20;4.18;;;4.50;98.80;;;;;;5039800;28;20038;-59
2022/04/03 07:12:55;;;;;;;7.95;4.70;;;4.30;99.10;;;;;;5034885;28;20021;-58
2022/04/03 07:15:20;;;;;;;5.70;3.97;;;4.40;98.60;;;;;;5032619;28;20033;-58
2022/04/03 07:17:46;;;;;;;7.45;3.90;;;4.00;99.00;;;;;;5040850;28;20032;-54
2022/04/03 07:20:15;;;;;;;7.30;5.28;;;4.60;99.90;;;;;;5038438;28;20053;-56
2022/04/03 07:22:41;;;;;;;7.32;4.00;;;5.80;98.60;;;;;;5030671;28;20037;-56
2022/04/03 07:25:08;;;;;;;10.00;3.75;;;7.00;96.60;;;;;;5034397;28;20049;-54
2022/04/03 07:27:33;;;;;;;9.27;3.90;;;8.30;93.40;;;;;;5048535;28;20026;-50
2022/04/03 07:29:59;;;;;;;8.82;4.25;;;8.40;92.90;;;;;;5047535;28;20767;-57
2022/04/03 07:32:25;;;;;;;8.65;4.68;;;8.90;90.40;;;;;;5042091;28;20082;-55
2022/04/03 07:34:50;;;;;;;5.13;3.85;;;8.30;90.10;;;;;;5047674;28;20088;-61
2022/04/03 07:37:16;;;;;;;6.10;4.50;;;8.60;89.40;;;;;;5032775;28;20507;-57
2022/04/03 07:39:41;;;;;;;6.80;3.97;;;9.10;90.10;;;;;;5043206;28;20056;-59
2022/04/03 07:42:07;;;;;;;7.00;4.63;;;9.50;87.60;;;;;;5035159;28;20029;-55
2022/04/03 07:44:33;;;;;;;5.70;4.10;;;10.60;85.00;;;;;;5034358;28;20030;-57
2022/04/03 07:46:58;;;;;;;7.03;4.30;;;11.30;81.00;;;;;;5035243;28;20021;-55
2022/04/03 07:49:24;;;;;;;8.35;4.20;;;11.90;78.10;;;;;;5038540;28;20033;-58
2022/04/03 07:51:49;;;;;;;8.50;4.78;;;11.70;74.30;;;;;;5035037;28;20022;-56
2022/04/03 07:54:15;;;;;;;4.90;3.53;;;12.20;76.50;;;;;;5044551;28;20020;-56
2022/04/03 07:56:40;;;;;;;6.25;3.70;;;12.90;76.10;;;;;;5035459;28;20042;-58
2022/04/03 07:59:07;;;;;;;7.97;3.33;;;12.60;75.50;;;;;;5018408;28;20071;-57
2022/04/03 08:01:34;;;;;;;6.55;3.42;;;12.20;70.40;;;;;;5039766;28;20022;-54
2022/04/03 08:03:59;;;;;;;5.78;3.63;;;12.20;71.00;;;;;;5034915;28;20025;-58
2022/04/03 08:06:25;;;;;;;5.05;3.72;;;13.10;72.40;;;;;;5038555;28;20048;-55
2022/04/03 08:08:50;;;;;;;8.35;3.35;;;13.50;69.70;;;;;;5037113;28;20138;-58
2022/04/03 08:11:16;;;;;;;5.15;3.22;;;13.90;68.60;;;;;;5039715;28;20523;-58
2022/04/03 08:13:42;;;;;;;5.57;4.15;;;14.30;65.50;;;;;;5042489;28;20605;-51
2022/04/03 08:16:08;;;;;;;5.82;3.60;;;14.20;66.60;;;;;;5041231;28;20029;-55
2022/04/03 08:18:34;;;;;;;4.32;3.03;;;13.60;66.60;;;;;;5040369;28;20615;-58
2022/04/03 08:20:59;;;;;;;6.35;3.80;;;12.90;65.10;;;;;;5042169;28;20032;-56
2022/04/03 08:23:25;;;;;;;4.28;3.10;;;13.10;67.20;;;;;;5048801;28;20025;-57
2022/04/03 08:25:50;;;;;;;5.35;3.70;;;14.30;62.90;;;;;;5045772;28;20025;-56
2022/04/03 08:28:17;;;;;;;3.53;2.60;;;13.50;63.50;;;;;;5047728;28;20399;-56
2022/04/03 08:30:42;;;;;;;6.22;3.70;;;14.50;58.00;;;;;;5041576;28;20061;-58
2022/04/03 08:33:11;;;;;;;4.10;2.85;;;14.80;59.30;;;;;;5034849;28;20114;-60
2022/04/03 08:35:38;;;;;;;5.20;3.30;;;14.40;59.70;;;;;;5041723;28;20033;-54
2022/04/03 08:38:05;;;;;;;7.60;3.80;;;13.80;59.40;;;;;;5040372;28;20152;-58
2022/04/03 08:40:31;;;;;;;5.78;2.80;;;14.10;61.00;;;;;;5046409;28;20045;-59
2022/04/03 08:42:57;;;;;;;4.88;3.47;;;13.40;60.00;;;;;;5053046;28;20040;-59
2022/04/03 08:45:25;;;;;;;4.78;2.95;;;13.20;57.50;;;;;;5051832;28;20033;-57
2022/04/03 08:47:52;;;;;;;4.60;3.13;;;13.40;60.40;;;;;;5048730;28;20026;-54
2022/04/03 08:50:19;;;;;;;4.95;3.30;;;13.50;61.00;;;;;;5049272;28;20435;-57
2022/04/03 08:52:47;;;;;;;6.90;2.90;;;12.90;59.50;;;;;;5043601;28;20029;-57
2022/04/03 08:55:14;;;;;;;4.63;3.30;;;12.70;59.00;;;;;;5045916;28;20061;-57
2022/04/03 08:57:40;;;;;;;3.88;2.97;;;12.50;62.00;;;;;;5037156;28;20049;-56
2022/04/03 09:00:07;;;;;;;4.93;2.83;;;13.20;65.30;;;;;;5034587;28;20048;-56
2022/04/03 09:02:32;;;;;;;4.00;2.85;;;13.60;59.00;;;;;;5039933;28;20100;-59
2022/04/03 09:04:58;;;;;;;3.30;2.33;;;13.90;56.60;;;;;;5042053;28;20028;-59
2022/04/03 09:07:24;;;;;;;4.35;1.67;;;13.40;56.60;;;;;;5043630;28;20049;-57
2022/04/03 09:09:57;;;;;;;4.53;2.88;;;13.30;50.90;;;;;;5040423;28;20048;-58
2022/04/03 09:12:23;;;;;;;3.17;2.00;;;13.10;53.70;;;;;;5050874;28;20021;-56
2022/04/03 09:14:51;;;;;;;3.15;2.22;;;12.20;53.20;;;;;;5037134;28;20040;-57
2022/04/03 09:17:42;;;;;;;4.72;2.95;;;12.20;54.10;;;;;;5034098;28;20033;-56
2022/04/03 09:20:12;;;;;;;4.60;2.80;;;12.30;59.00;;;;;;5037933;28;20480;-57
2022/04/03 09:22:40;;;;;;;5.43;2.53;;;11.40;54.40;;;;;;5040321;28;20037;-56
2022/04/03 09:25:07;;;;;;;4.57;2.55;;;12.20;57.60;;;;;;5045142;28;20053;-60
2022/04/03 09:27:34;;;;;;;3.63;2.30;;;12.80;55.20;;;;;;5032894;28;20479;-53
2022/04/03 09:30:07;;;;;;;3.92;2.38;;;13.50;55.00;;;;;;5040204;28;20515;-59
2022/04/03 09:32:33;;;;;;;5.10;3.00;;;13.10;54.30;;;;;;5033473;28;20037;-58
2022/04/03 09:34:59;;;;;;;3.72;2.47;;;12.00;56.80;;;;;;5044144;28;20020;-57
2022/04/03 09:37:26;;;;;;;5.05;2.97;;;11.50;54.90;;;;;;5040729;28;20029;-52
2022/04/03 09:39:52;;;;;;;3.13;2.50;;;11.00;54.90;;;;;;5037909;28;20021;-57
2022/04/03 09:42:18;;;;;;;4.25;2.40;;;10.50;57.30;;;;;;5049197;28;20056;-57
2022/04/03 09:44:46;;;;;;;3.88;2.80;;;11.00;58.40;;;;;;5039582;28;20492;-55
2022/04/03 09:47:29;;;;;;;5.65;2.78;;;12.10;57.10;;;;;;5042411;28;20024;-58
2022/04/03 09:50:05;;;;;;;4.60;2.80;;;12.90;56.30;;;;;;5037245;28;20432;-56
2022/04/03 09:52:43;;;;;;;3.95;2.55;;;12.80;53.10;;;;;;5047684;28;20033;-58
2022/04/03 09:55:23;;;;;;;2.85;2.58;;;11.80;53.10;;;;;;5034284;28;20029;-55
2022/04/03 09:58:10;;;;;;;3.45;2.47;;;11.00;54.40;;;;;;5043189;28;20045;-58
2022/04/03 10:00:41;;;;;;;6.53;2.72;;;10.20;58.30;;;;;;5009182;28;20041;-59
2022/04/03 10:03:09;;;;;;;3.97;2.58;;;10.00;59.90;;;;;;5037907;28;20021;-58
2022/04/03 10:05:36;;;;;;;2.88;2.35;;;9.20;58.90;;;;;;5035600;28;20484;-51
2022/04/03 10:08:03;;;;;;;2.70;2.20;;;8.90;61.60;;;;;;5046539;28;20025;-56
2022/04/03 10:10:30;;;;;;;4.07;2.75;;;8.60;63.00;;;;;;5039982;28;20017;-57
2022/04/03 10:12:56;;;;;;;6.22;3.38;;;9.00;62.00;;;;;;5049423;28;20488;-56
2022/04/03 10:15:23;;;;;;;5.93;2.85;;;9.30;60.40;;;;;;5049540;28;20086;-59
2022/04/03 10:17:48;;;;;;;5.22;2.42;;;9.70;62.10;;;;;;5049746;28;20104;-56
2022/04/03 10:20:14;;;;;;;4.32;2.28;;;9.90;58.40;;;;;;5051450;28;20067;-53
2022/04/03 10:22:43;;;;;;;5.25;2.78;;;9.50;58.30;;;;;;5051193;28;20586;-57
2022/04/03 10:25:14;;;;;;;4.63;2.63;;;9.10;64.10;;;;;;5039175;28;20056;-57
2022/04/03 10:27:42;;;;;;;5.50;2.40;;;9.20;58.40;;;;;;5043168;28;20040;-55
2022/04/03 10:30:10;;;;;;;7.05;3.38;;;9.20;58.90;;;;;;5042206;28;20021;-57
2022/04/03 10:32:37;;;;;;;16.33;7.32;;;9.00;64.50;;;;;;5021002;28;20536;-57
2022/04/03 10:35:03;;;;;;;16.45;9.00;;;9.10;61.80;;;;;;5042370;28;20104;-58
2022/04/03 10:37:34;;;;;;;4.07;2.65;;;9.00;63.30;;;;;;5039077;28;20120;-57
2022/04/03 10:40:03;;;;;;;5.95;2.30;;;9.00;63.30;;;;;;5045283;28;20448;-58
2022/04/03 10:42:30;;;;;;;4.03;2.85;;;9.30;61.10;;;;;;5047546;28;20040;-57
2022/04/03 10:45:10;;;;;;;3.35;2.30;;;9.30;61.10;;;;;;5038756;28;20021;-59
2022/04/03 10:47:36;;;;;;;14.00;4.35;;;9.70;59.00;;;;;;5047801;28;20028;-52
2022/04/03 10:50:04;;;;;;;2.78;2.20;;;9.50;58.70;;;;;;5045121;28;20025;-57
2022/04/03 10:52:36;;;;;;;6.88;3.90;;;9.60;61.80;;;;;;5040766;28;20025;-54
2022/04/03 10:55:10;;;;;;;3.47;1.88;;;9.40;57.60;;;;;;5040346;28;20033;-54
2022/04/03 10:57:40;;;;;;;3.22;2.50;;;9.60;58.70;;;;;;5034841;28;20377;-52
2022/04/03 11:00:12;;;;;;;3.67;1.98;;;9.50;61.30;;;;;;5034543;28;20432;-58
2022/04/03 11:02:42;;;;;;;6.50;2.63;;;9.40;60.60;;;;;;5018132;28;20169;-58
2022/04/03 11:05:29;;;;;;;5.50;2.40;;;9.40;60.70;;;;;;5041845;28;20025;-51
2022/04/03 11:08:00;;;;;;;4.72;2.15;;;8.90;61.50;;;;;;5041726;28;20086;-57
2022/04/03 11:10:57;;;;;;;3.58;2.13;;;8.80;61.20;;;;;;5037431;28;20056;-56
2022/04/03 11:13:29;;;;;;;3.95;2.10;;;8.50;62.00;;;;;;5046075;28;20013;-56
2022/04/03 11:16:10;;;;;;;4.97;2.90;;;8.60;63.00;;;;;;5044491;28;20024;-57
2022/04/03 11:18:48;;;;;;;2.97;2.15;;;8.70;61.90;;;;;;5035812;28;20027;-57
2022/04/03 11:21:27;;;;;;;10.52;4.97;;;8.60;62.80;;;;;;5049666;28;20387;-56
2022/04/03 11:24:00;;;;;;;5.70;2.78;;;9.00;67.20;;;;;;5040894;28;20108;-59
2022/04/03 11:26:26;;;;;;;4.95;2.47;;;9.20;63.10;;;;;;5036370;28;20552;-55
2022/04/03 11:28:52;;;;;;;9.77;3.30;;;9.50;63.50;;;;;;5033221;28;20052;-55
2022/04/03 11:31:18;;;;;;;6.95;3.67;;;9.60;64.10;;;;;;5036526;28;20048;-57
2022/04/03 11:33:46;;;;;;;5.32;2.20;;;9.80;63.50;;;;;;5038349;28;20025;-56
2022/04/03 11:36:15;;;;;;;7.15;2.17;;;10.00;63.60;;;;;;5048444;28;20021;-56
2022/04/03 11:38:46;;;;;;;3.08;1.90;;;10.00;59.70;;;;;;5032793;28;20029;-54
2022/04/03 11:41:46;;;;;;;2.80;2.10;;;9.70;59.40;;;;;;5043211;28;20033;-56
2022/04/03 11:44:15;;;;;;;2.90;1.83;;;9.30;59.50;;;;;;5038506;28;20132;-59
2022/04/03 11:46:46;;;;;;;8.95;2.78;;;9.30;63.50;;;;;;5034898;28;20111;-58
2022/04/03 11:49:29;;;;;;;3.08;2.38;;;9.10;64.30;;;;;;5041635;28;20779;-58
2022/04/03 11:52:12;;;;;;;3.00;2.30;;;9.40;64.10;;;;;;5036327;28;20091;-56
2022/04/03 11:54:38;;;;;;;5.32;2.30;;;9.30;66.10;;;;;;5038680;28;20037;-57
2022/04/03 11:57:07;;;;;;;5.70;2.00;;;9.50;61.50;;;;;;5054018;28;20109;-56
2022/04/03 11:59:37;;;;;;;3.65;1.98;;;9.60;61.40;;;;;;5058020;28;20020;-58
2022/04/03 12:02:15;;;;;;;3.40;1.92;;;9.20;64.70;;;;;;5057350;28;20028;-55
2022/04/03 12:04:41;;;;;;;3.22;1.75;;;9.10;63.80;;;;;;5034611;28;20045;-55
2022/04/03 12:07:14;;;;;;;2.88;1.90;;;9.50;59.70;;;;;;5037917;28;20028;-55
2022/04/03 12:09:44;;;;;;;6.78;2.25;;;9.50;61.30;;;;;;5033511;28;20439;-58
2022/04/03 12:12:10;;;;;;;2.58;2.10;;;9.50;62.70;;;;;;5040507;28;20029;-54
2022/04/03 12:14:40;;;;;;;3.13;2.08;;;9.40;61.40;;;;;;5047121;28;20021;-58
2022/04/03 12:17:08;;;;;;;3.42;1.98;;;9.30;63.00;;;;;;5036590;28;20060;-58
2022/04/03 12:19:39;;;;;;;5.45;2.35;;;9.20;63.10;;;;;;5044096;28;20033;-59
2022/04/03 12:22:08;;;;;;;4.35;2.60;;;9.20;63.40;;;;;;5049019;28;20100;-55
2022/04/03 12:24:35;;;;;;;6.15;2.30;;;9.20;63.10;;;;;;5039232;28;20021;-56
2022/04/03 12:27:12;;;;;;;6.18;2.28;;;9.20;63.90;;;;;;5041588;28;20036;-57
2022/04/03 12:29:38;;;;;;;8.50;4.18;;;8.90;64.20;;;;;;5042153;28;20026;-57
2022/04/03 12:32:16;;;;;;;6.35;2.78;;;9.00;64.70;;;;;;5045089;28;20504;-58
2022/04/03 12:34:44;;;;;;;5.07;2.20;;;9.00;63.40;;;;;;5042544;28;21059;-58
2022/04/03 12:37:11;;;;;;;5.10;2.97;;;8.90;65.60;;;;;;5040762;28;20031;-59
2022/04/03 12:40:02;;;;;;;6.93;2.42;;;9.00;65.00;;;;;;5041919;28;20029;-51
2022/04/03 12:42:41;;;;;;;3.78;2.25;;;8.90;64.60;;;;;;5038059;28;20407;-57
2022/04/03 12:45:17;;;;;;;4.60;2.45;;;9.00;64.20;;;;;;5044284;28;20033;-57
2022/04/03 12:47:45;;;;;;;4.22;2.65;;;9.00;63.30;;;;;;5039596;28;20052;-59
2022/04/03 12:50:38;;;;;;;6.15;2.33;;;8.80;63.40;;;;;;5038931;28;20397;-59
2022/04/03 12:53:05;;;;;;;5.18;2.40;;;8.60;63.80;;;;;;5048173;28;20083;-57
2022/04/03 12:55:41;;;;;;;4.80;2.67;;;8.50;65.70;;;;;;5038690;28;20112;-58